Time;durP1;ratioP1;P1;durP2;ratioP2;P2;SDS_P1;SDS_P2;PMS_P1;PMS_P2;Temp;Humidity;BMP_temperature;BMP_pressure;BME280_temperature;BME280_humidity;BME280_pressure;Samples;Min_cycle;Max_cycle;Signal;HPM_P1;HPM_P2
2023/02/20 00:00:23;;;;;;;0.10;0.10;;;9.00;99.90;;;;;;5021350;28;20208;-81
2023/02/20 00:02:49;;;;;;;0.10;0.10;;;9.00;99.90;;;;;;5021636;28;21055;-80
2023/02/20 00:05:16;;;;;;;0.10;0.10;;;9.00;99.90;;;;;;5022597;28;20186;-80
2023/02/20 00:07:41;;;;;;;0.10;0.10;;;8.90;99.90;;;;;;5040891;28;20218;-81
2023/02/20 00:10:08;;;;;;;0.10;0.10;;;8.90;99.90;;;;;;5020572;28;20274;-79
2023/02/20 00:12:33;;;;;;;0.10;0.10;;;8.90;99.90;;;;;;5023500;28;20245;-80
2023/02/20 00:14:59;;;;;;;0.10;0.10;;;8.90;99.90;;;;;;5019577;28;20676;-80
2023/02/20 00:17:24;;;;;;;0.03;0.03;;;8.90;99.90;;;;;;5020219;28;20670;-80
2023/02/20 00:19:50;;;;;;;0.10;0.10;;;8.90;99.90;;;;;;5018432;28;20209;-81
2023/02/20 00:22:15;;;;;;;0.10;0.10;;;8.90;99.90;;;;;;5017136;28;20651;-79
2023/02/20 00:24:41;;;;;;;0.10;0.10;;;8.80;99.90;;;;;;5020102;28;20209;-81
2023/02/20 00:27:07;;;;;;;0.10;0.10;;;8.80;99.90;;;;;;5022700;28;20659;-79
2023/02/20 00:29:33;;;;;;;0.10;0.10;;;8.70;99.90;;;;;;5023298;28;20193;-80
2023/02/20 00:31:58;;;;;;;0.10;0.10;;;8.60;99.90;;;;;;5023162;28;20189;-80
2023/02/20 00:34:26;;;;;;;0.10;0.10;;;8.50;99.90;;;;;;5017344;28;20306;-80
2023/02/20 00:36:52;;;;;;;0.00;0.00;;;8.50;99.90;;;;;;5022345;28;20528;-81
2023/02/20 00:39:18;;;;;;;0.10;0.10;;;8.40;99.90;;;;;;5020744;28;20224;-80
2023/02/20 00:41:43;;;;;;;0.10;0.10;;;8.40;99.90;;;;;;5023200;28;20607;-80
2023/02/20 00:44:09;;;;;;;0.10;0.10;;;8.30;99.90;;;;;;5023455;28;20217;-80
2023/02/20 00:46:34;;;;;;;0.10;0.10;;;8.30;99.90;;;;;;5017505;28;20196;-80
2023/02/20 00:49:00;;;;;;;0.10;0.10;;;8.20;99.90;;;;;;5022313;28;20197;-81
2023/02/20 00:51:26;;;;;;;0.10;0.10;;;8.20;99.90;;;;;;5018523;28;20200;-79
2023/02/20 00:53:51;;;;;;;0.10;0.10;;;8.20;99.90;;;;;;5038059;28;20217;-81
2023/02/20 00:56:17;;;;;;;0.10;0.10;;;8.10;99.90;;;;;;5024237;28;20190;-80
2023/02/20 00:58:43;;;;;;;0.10;0.10;;;8.10;99.90;;;;;;5021622;28;20212;-80
2023/02/20 01:01:08;;;;;;;0.10;0.10;;;8.00;99.90;;;;;;5017578;28;20292;-80
2023/02/20 01:03:34;;;;;;;0.10;0.10;;;8.00;99.90;;;;;;5020289;28;20312;-79
2023/02/20 01:05:59;;;;;;;0.10;0.10;;;7.90;99.90;;;;;;5015491;28;20736;-80
2023/02/20 01:08:25;;;;;;;0.10;0.10;;;7.90;99.90;;;;;;5017140;28;20201;-80
2023/02/20 01:10:51;;;;;;;0.10;0.10;;;7.90;99.90;;;;;;5022354;28;20201;-80
2023/02/20 01:13:17;;;;;;;0.10;0.10;;;7.80;99.90;;;;;;5018769;28;20623;-80
2023/02/20 01:15:42;;;;;;;0.10;0.10;;;7.80;99.90;;;;;;5019215;28;20212;-79
2023/02/20 01:18:08;;;;;;;0.10;0.10;;;7.70;99.90;;;;;;5018802;28;20186;-80
2023/02/20 01:20:34;;;;;;;0.07;0.07;;;7.60;99.90;;;;;;5021485;28;20201;-80
2023/02/20 01:23:00;;;;;;;0.00;0.00;;;7.70;99.90;;;;;;5020120;28;20263;-80
2023/02/20 01:25:26;;;;;;;0.10;0.10;;;7.60;99.90;;;;;;5021652;28;20702;-81
2023/02/20 01:27:51;;;;;;;0.10;0.10;;;7.60;99.90;;;;;;5017390;28;20220;-81
2023/02/20 01:30:17;;;;;;;0.10;0.10;;;7.70;99.90;;;;;;5019644;28;20189;-81
2023/02/20 01:32:43;;;;;;;0.10;0.10;;;7.60;99.90;;;;;;5019350;28;20241;-79
2023/02/20 01:35:08;;;;;;;0.10;0.10;;;7.60;99.90;;;;;;5016046;28;20285;-80
2023/02/20 01:37:34;;;;;;;0.10;0.10;;;7.60;99.90;;;;;;5021512;28;20286;-79
2023/02/20 01:39:59;;;;;;;0.10;0.10;;;7.50;99.90;;;;;;5016929;28;20189;-79
2023/02/20 01:42:29;;;;;;;0.10;0.10;;;7.50;99.90;;;;;;5014085;28;20201;-79
2023/02/20 01:44:54;;;;;;;0.10;0.10;;;7.50;99.90;;;;;;5021736;28;20186;-79
2023/02/20 01:47:22;;;;;;;0.10;0.10;;;7.40;99.90;;;;;;5016928;28;20205;-80
2023/02/20 01:49:54;;;;;;;0.10;0.10;;;7.40;99.90;;;;;;5022846;28;20198;-81
2023/02/20 01:52:27;;;;;;;0.10;0.10;;;7.40;99.90;;;;;;5020894;28;20182;-80
2023/02/20 01:55:22;;;;;;;0.10;0.10;;;7.40;99.90;;;;;;5022327;28;20202;-79
2023/02/20 01:57:52;;;;;;;0.10;0.10;;;7.40;99.90;;;;;;5015416;28;20224;-80
2023/02/20 02:00:20;;;;;;;0.10;0.10;;;7.40;99.90;;;;;;5021002;28;20217;-79
2023/02/20 02:02:59;;;;;;;0.10;0.10;;;7.40;99.90;;;;;;5018900;28;20205;-80
2023/02/20 02:05:27;;;;;;;0.10;0.10;;;7.40;99.90;;;;;;5037471;28;20236;-79
2023/02/20 02:07:53;;;;;;;0.10;0.10;;;7.30;99.90;;;;;;5023285;28;20189;-79
2023/02/20 02:10:24;;;;;;;0.10;0.10;;;7.30;99.90;;;;;;5020494;28;20218;-81
2023/02/20 02:12:52;;;;;;;0.10;0.10;;;7.30;99.90;;;;;;5018706;28;20217;-81
2023/02/20 02:15:20;;;;;;;0.10;0.10;;;7.40;99.90;;;;;;5021174;28;20211;-79
2023/02/20 02:18:02;;;;;;;0.10;0.10;;;7.50;99.90;;;;;;5016052;28;20210;-80
2023/02/20 02:20:40;;;;;;;0.10;0.10;;;7.50;99.90;;;;;;5021304;28;20355;-80
2023/02/20 02:23:43;;;;;;;0.10;0.10;;;7.50;99.90;;;;;;5021194;28;20245;-80
2023/02/20 02:26:52;;;;;;;0.10;0.10;;;7.40;99.90;;;;;;5016595;28;20189;-80
2023/02/20 02:29:44;;;;;;;0.10;0.10;;;7.40;99.90;;;;;;4993762;28;20272;-79
2023/02/20 02:32:41;;;;;;;0.10;0.10;;;7.40;99.90;;;;;;5009223;28;20183;-81
2023/02/20 02:35:13;;;;;;;0.10;0.10;;;7.20;99.90;;;;;;5019594;28;20253;-80
2023/02/20 02:38:03;;;;;;;0.10;0.10;;;7.20;99.90;;;;;;5019754;28;20208;-79
2023/02/20 02:40:57;;;;;;;0.10;0.10;;;7.20;99.90;;;;;;5019031;28;20274;-80
2023/02/20 02:43:53;;;;;;;0.10;0.10;;;7.30;99.90;;;;;;5020525;28;20269;-80
2023/02/20 02:46:41;;;;;;;0.10;0.10;;;7.20;99.90;;;;;;5020809;28;20823;-79
2023/02/20 02:49:39;;;;;;;0.10;0.10;;;7.20;99.90;;;;;;5019348;28;20659;-80
2023/02/20 02:52:07;;;;;;;0.10;0.10;;;7.20;99.90;;;;;;5022769;28;20732;-80
2023/02/20 02:54:32;;;;;;;0.10;0.10;;;7.30;99.90;;;;;;5025277;28;20693;-80
2023/02/20 02:57:19;;;;;;;0.10;0.10;;;7.20;99.90;;;;;;5025572;28;20189;-80
2023/02/20 02:59:48;;;;;;;0.10;0.10;;;7.20;99.90;;;;;;5025221;28;20198;-80
2023/02/20 03:02:16;;;;;;;0.10;0.10;;;7.20;99.90;;;;;;5021508;28;20179;-81
2023/02/20 03:04:44;;;;;;;0.10;0.10;;;7.20;99.90;;;;;;5026283;28;20636;-80
2023/02/20 03:07:15;;;;;;;0.10;0.10;;;7.20;99.90;;;;;;5023785;28;20276;-79
2023/02/20 03:09:59;;;;;;;0.10;0.10;;;7.20;99.90;;;;;;5025800;28;20188;-79
2023/02/20 03:12:26;;;;;;;0.10;0.10;;;7.20;99.90;;;;;;5019602;28;20288;-79
2023/02/20 03:15:32;;;;;;;0.10;0.10;;;7.20;99.90;;;;;;5024406;28;20214;-79
2023/02/20 03:18:36;;;;;;;0.10;0.10;;;7.20;99.90;;;;;;5022600;28;20178;-79
2023/02/20 03:21:11;;;;;;;0.10;0.10;;;7.10;99.90;;;;;;5024741;28;20305;-79
2023/02/20 03:23:43;;;;;;;0.10;0.10;;;7.10;99.90;;;;;;5022404;28;20211;-79
2023/02/20 03:26:16;;;;;;;0.10;0.10;;;7.10;99.90;;;;;;5018395;28;20188;-81
2023/02/20 03:28:55;;;;;;;0.10;0.10;;;7.10;99.90;;;;;;5025202;28;20261;-81
2023/02/20 03:31:45;;;;;;;0.10;0.10;;;7.10;99.90;;;;;;5025852;28;20754;-80
2023/02/20 03:45:31;;;;;;;0.07;0.07;;;7.00;99.90;;;;;;5028845;28;20336;-80
2023/02/20 03:48:01;;;;;;;0.10;0.10;;;6.90;99.90;;;;;;5020565;28;20702;-79
2023/02/20 03:53:12;;;;;;;0.10;0.10;;;6.80;99.90;;;;;;5022570;28;20340;-79
2023/02/20 03:55:38;;;;;;;0.10;0.10;;;6.80;99.90;;;;;;5019818;28;20188;-79
2023/02/20 03:58:08;;;;;;;0.10;0.10;;;6.80;99.90;;;;;;5022804;28;20182;-79
2023/02/20 04:00:40;;;;;;;0.10;0.10;;;6.80;99.90;;;;;;5021565;28;20224;-79
2023/02/20 04:03:29;;;;;;;0.10;0.10;;;6.70;99.90;;;;;;5022063;28;20229;-79
2023/02/20 04:05:57;;;;;;;0.00;0.00;;;6.70;99.90;;;;;;5023588;28;20208;-79
2023/02/20 04:08:34;;;;;;;0.10;0.10;;;6.70;99.90;;;;;;5021497;28;20187;-79
2023/02/20 04:11:09;;;;;;;0.10;0.10;;;6.70;99.90;;;;;;5022707;28;20177;-81
2023/02/20 04:13:37;;;;;;;0.10;0.10;;;6.70;99.90;;;;;;5040102;28;20696;-78
2023/02/20 04:16:03;;;;;;;0.10;0.10;;;6.70;99.90;;;;;;5021249;28;20647;-79
2023/02/20 04:18:31;;;;;;;0.10;0.10;;;6.70;99.90;;;;;;5024150;28;20186;-81
2023/02/20 04:20:59;;;;;;;0.10;0.10;;;6.60;99.90;;;;;;5024289;28;20761;-80
2023/02/20 04:23:26;;;;;;;0.10;0.10;;;6.60;99.90;;;;;;5022982;28;20203;-80
2023/02/20 04:25:54;;;;;;;0.10;0.10;;;6.60;99.90;;;;;;5020737;28;20190;-79
2023/02/20 04:28:20;;;;;;;0.30;0.30;;;6.50;99.90;;;;;;5024369;28;20692;-81
2023/02/20 04:30:46;;;;;;;0.10;0.10;;;6.40;99.90;;;;;;5024656;28;20566;-80
2023/02/20 04:33:13;;;;;;;0.10;0.10;;;6.40;99.90;;;;;;5024389;28;20210;-80
2023/02/20 04:35:39;;;;;;;0.10;0.10;;;6.40;99.90;;;;;;5023159;28;20185;-79
2023/02/20 04:38:06;;;;;;;0.10;0.10;;;6.30;99.90;;;;;;5023757;28;20188;-81
2023/02/20 04:40:32;;;;;;;0.10;0.10;;;6.40;99.90;;;;;;5020973;28;20213;-80
2023/02/20 04:42:57;;;;;;;0.10;0.10;;;6.40;99.90;;;;;;5020986;28;20730;-80
2023/02/20 04:45:23;;;;;;;0.07;0.07;;;6.20;99.90;;;;;;5022763;28;20232;-80
2023/02/20 04:47:48;;;;;;;0.10;0.10;;;6.20;99.90;;;;;;5024345;28;20229;-79
2023/02/20 04:50:32;;;;;;;0.10;0.10;;;6.20;99.90;;;;;;5023104;28;20187;-80
2023/02/20 04:52:59;;;;;;;0.10;0.10;;;6.20;99.90;;;;;;5018049;28;20205;-81
2023/02/20 04:55:25;;;;;;;0.10;0.10;;;6.20;99.90;;;;;;5021890;28;20217;-81
2023/02/20 04:57:56;;;;;;;0.10;0.10;;;6.10;99.90;;;;;;5018656;28;20275;-80
2023/02/20 05:00:23;;;;;;;0.10;0.10;;;6.10;99.90;;;;;;5016923;28;20196;-79
2023/02/20 05:02:49;;;;;;;0.10;0.10;;;6.00;99.90;;;;;;5022887;28;20753;-79
2023/02/20 05:05:26;;;;;;;0.10;0.10;;;6.00;99.90;;;;;;5018014;28;20569;-80
2023/02/20 05:08:00;;;;;;;0.10;0.10;;;6.00;99.90;;;;;;5021096;28;20279;-81
2023/02/20 05:10:27;;;;;;;0.10;0.10;;;6.00;99.90;;;;;;5021444;28;20190;-80
2023/02/20 05:12:53;;;;;;;0.10;0.10;;;5.90;99.90;;;;;;5021988;28;20208;-79
2023/02/20 05:15:19;;;;;;;0.10;0.10;;;5.80;99.90;;;;;;5020393;28;20268;-80
2023/02/20 05:17:45;;;;;;;0.10;0.10;;;5.80;99.90;;;;;;5020025;28;20229;-81
2023/02/20 05:20:11;;;;;;;0.10;0.10;;;5.80;99.90;;;;;;5018247;28;20608;-81
2023/02/20 05:22:37;;;;;;;0.10;0.10;;;5.90;99.90;;;;;;5022151;28;20269;-79
2023/02/20 05:25:02;;;;;;;0.10;0.10;;;5.80;99.90;;;;;;5016946;28;20187;-81
2023/02/20 05:27:28;;;;;;;0.10;0.10;;;5.90;99.90;;;;;;5017905;28;20193;-80
2023/02/20 05:29:56;;;;;;;0.10;0.10;;;6.00;99.90;;;;;;5038787;28;20203;-81
2023/02/20 05:32:24;;;;;;;0.10;0.10;;;6.10;99.90;;;;;;5017956;28;20192;-79
2023/02/20 05:34:49;;;;;;;0.10;0.10;;;6.00;99.90;;;;;;5021601;28;20262;-80
2023/02/20 05:37:17;;;;;;;0.10;0.10;;;6.10;99.90;;;;;;5018447;28;20219;-80
2023/02/20 05:39:43;;;;;;;0.10;0.10;;;6.10;99.90;;;;;;5019206;28;20194;-81
2023/02/20 05:42:08;;;;;;;0.10;0.10;;;6.10;99.90;;;;;;5021135;28;20208;-80
2023/02/20 05:44:34;;;;;;;0.10;0.10;;;6.10;99.90;;;;;;5020620;28;22156;-80
2023/02/20 05:47:01;;;;;;;0.10;0.10;;;6.00;99.90;;;;;;5022246;28;20197;-80
2023/02/20 05:49:27;;;;;;;0.10;0.10;;;6.00;99.90;;;;;;5017097;28;20232;-79
2023/02/20 05:51:55;;;;;;;0.10;0.10;;;6.00;99.90;;;;;;5015532;28;20192;-82
2023/02/20 05:54:21;;;;;;;0.10;0.10;;;6.00;99.90;;;;;;5017307;28;20259;-79
2023/02/20 05:56:47;;;;;;;0.10;0.10;;;5.90;99.90;;;;;;5022037;28;20218;-80
2023/02/20 05:59:16;;;;;;;0.10;0.10;;;5.80;99.90;;;;;;5021662;28;20663;-80
2023/02/20 06:01:41;;;;;;;0.00;0.00;;;5.90;99.90;;;;;;5018104;28;20213;-80
2023/02/20 06:04:07;;;;;;;0.10;0.10;;;5.80;99.90;;;;;;5016645;28;20211;-79
2023/02/20 06:06:34;;;;;;;0.10;0.10;;;5.70;99.90;;;;;;5019562;28;20190;-80
2023/02/20 06:09:00;;;;;;;0.10;0.10;;;5.50;99.90;;;;;;5019700;28;20195;-81
2023/02/20 06:11:26;;;;;;;0.10;0.10;;;5.60;99.90;;;;;;5017330;28;20198;-79
2023/02/20 06:13:52;;;;;;;0.10;0.10;;;5.50;99.90;;;;;;5021308;28;20257;-80
2023/02/20 06:16:22;;;;;;;0.10;0.10;;;5.60;99.90;;;;;;5019831;28;20195;-80
2023/02/20 06:18:48;;;;;;;0.10;0.10;;;5.60;99.90;;;;;;5015365;28;20271;-79
2023/02/20 06:21:13;;;;;;;0.10;0.10;;;5.70;99.90;;;;;;5018786;28;20303;-81
2023/02/20 06:23:42;;;;;;;0.10;0.10;;;5.70;99.90;;;;;;5021571;28;20246;-81
2023/02/20 06:26:07;;;;;;;0.10;0.10;;;5.70;99.90;;;;;;5021872;28;20196;-82
2023/02/20 06:28:34;;;;;;;0.10;0.10;;;5.80;99.90;;;;;;5018734;28;20269;-81
2023/02/20 06:30:59;;;;;;;0.10;0.10;;;5.80;99.90;;;;;;5017235;28;20267;-83
2023/02/20 06:33:25;;;;;;;0.10;0.10;;;5.80;99.90;;;;;;5019209;28;20738;-80
2023/02/20 06:35:50;;;;;;;0.10;0.10;;;5.70;99.90;;;;;;5017762;28;20196;-81
2023/02/20 06:38:16;;;;;;;0.10;0.10;;;5.60;99.90;;;;;;5019906;28;20266;-81
2023/02/20 06:40:42;;;;;;;0.10;0.10;;;5.60;99.90;;;;;;5020075;28;20194;-80
2023/02/20 06:43:08;;;;;;;0.10;0.10;;;5.60;99.90;;;;;;5020277;28;20210;-81
2023/02/20 06:45:33;;;;;;;0.10;0.10;;;5.60;99.90;;;;;;5021340;28;20194;-80
2023/02/20 06:47:59;;;;;;;0.10;0.10;;;5.60;99.90;;;;;;5017412;28;20198;-81
2023/02/20 06:50:25;;;;;;;0.10;0.10;;;5.50;99.90;;;;;;5014603;28;20193;-81
2023/02/20 06:52:50;;;;;;;0.10;0.10;;;5.60;99.90;;;;;;5014461;28;20194;-81
2023/02/20 06:55:16;;;;;;;0.10;0.10;;;5.60;99.90;;;;;;5021673;28;20309;-80
2023/02/20 06:57:41;;;;;;;0.10;0.10;;;5.50;99.90;;;;;;5017181;28;20560;-80
2023/02/20 07:00:08;;;;;;;0.10;0.10;;;5.50;99.90;;;;;;5021701;28;20226;-82
2023/02/20 07:02:35;;;;;;;0.10;0.10;;;5.50;99.90;;;;;;5019579;28;20238;-80
2023/02/20 07:05:02;;;;;;;0.10;0.10;;;5.70;99.90;;;;;;5020242;28;20184;-80
2023/02/20 07:07:28;;;;;;;0.10;0.10;;;5.80;99.90;;;;;;5017747;28;20258;-81
2023/02/20 07:09:53;;;;;;;0.10;0.10;;;5.80;99.90;;;;;;5017025;28;20672;-80
2023/02/20 07:12:19;;;;;;;0.10;0.10;;;5.90;99.90;;;;;;5019288;28;20224;-80
2023/02/20 07:14:44;;;;;;;0.10;0.10;;;6.00;99.90;;;;;;5019087;28;20263;-79
2023/02/20 07:17:10;;;;;;;0.10;0.10;;;6.00;99.90;;;;;;5013858;28;20658;-80
2023/02/20 07:19:36;;;;;;;0.10;0.10;;;6.00;99.90;;;;;;5021261;28;20308;-82
2023/02/20 07:22:01;;;;;;;0.10;0.10;;;6.20;99.90;;;;;;5019537;28;20213;-80
2023/02/20 07:24:27;;;;;;;0.10;0.10;;;6.40;99.90;;;;;;5018704;28;20822;-79
2023/02/20 07:26:53;;;;;;;0.10;0.10;;;6.50;99.90;;;;;;5018995;28;21038;-80
2023/02/20 07:29:18;;;;;;;0.10;0.10;;;6.50;99.90;;;;;;5018042;28;20187;-79
2023/02/20 07:31:44;;;;;;;0.10;0.10;;;6.70;99.90;;;;;;5011740;28;20241;-80
2023/02/20 07:34:09;;;;;;;0.10;0.10;;;6.80;99.90;;;;;;5017850;28;20268;-80
2023/02/20 07:36:35;;;;;;;0.10;0.10;;;7.00;99.90;;;;;;5018791;28;20835;-80
2023/02/20 07:39:02;;;;;;;0.10;0.10;;;7.20;99.90;;;;;;5022594;28;20225;-79
2023/02/20 07:41:33;;;;;;;0.10;0.10;;;7.40;99.90;;;;;;5021802;28;20180;-80
2023/02/20 07:43:59;;;;;;;0.10;0.10;;;7.70;99.90;;;;;;5020320;28;20208;-80
2023/02/20 07:46:25;;;;;;;0.10;0.10;;;7.80;99.90;;;;;;5020396;28;20200;-81
2023/02/20 07:48:52;;;;;;;0.10;0.10;;;8.00;99.90;;;;;;5017779;28;20184;-80
2023/02/20 07:51:17;;;;;;;0.10;0.10;;;8.10;99.90;;;;;;5021478;28;20187;-79
2023/02/20 07:53:50;;;;;;;0.10;0.10;;;8.10;99.90;;;;;;5023328;28;20237;-79
2023/02/20 07:56:17;;;;;;;0.10;0.10;;;8.10;99.90;;;;;;5020696;28;20221;-79
2023/02/20 07:58:42;;;;;;;0.10;0.10;;;8.20;99.90;;;;;;5021918;28;20258;-81
2023/02/20 08:01:08;;;;;;;0.10;0.10;;;8.30;99.90;;;;;;5021121;28;20195;-80
2023/02/20 08:03:33;;;;;;;0.10;0.10;;;8.40;99.90;;;;;;5022227;28;20198;-80
2023/02/20 08:05:59;;;;;;;0.10;0.10;;;8.40;99.90;;;;;;5019733;28;20600;-80
2023/02/20 08:08:24;;;;;;;0.10;0.10;;;8.40;99.90;;;;;;5016651;28;20234;-81
2023/02/20 08:10:51;;;;;;;0.10;0.10;;;8.50;99.90;;;;;;5020198;28;20194;-79
2023/02/20 08:13:16;;;;;;;0.10;0.10;;;8.60;99.90;;;;;;5022368;28;20286;-81
2023/02/20 08:15:43;;;;;;;0.10;0.10;;;8.70;99.90;;;;;;5019415;28;20197;-82
2023/02/20 08:18:09;;;;;;;0.10;0.10;;;8.70;99.90;;;;;;5021785;28;20192;-81
2023/02/20 08:20:35;;;;;;;0.07;0.07;;;8.80;99.90;;;;;;5024396;28;20269;-81
2023/02/20 08:23:00;;;;;;;0.10;0.10;;;8.90;99.90;;;;;;5020353;28;21512;-80
2023/02/20 08:25:26;;;;;;;0.10;0.10;;;9.00;99.90;;;;;;5025068;28;20189;-79
2023/02/20 08:27:51;;;;;;;0.10;0.10;;;9.20;99.90;;;;;;5023938;28;20728;-80
2023/02/20 08:30:23;;;;;;;0.10;0.10;;;9.40;99.90;;;;;;5017671;28;20189;-79
2023/02/20 08:32:53;;;;;;;0.10;0.10;;;9.60;99.90;;;;;;5025155;28;20693;-79
2023/02/20 08:35:19;;;;;;;0.10;0.10;;;9.70;99.90;;;;;;5024030;28;20194;-79
2023/02/20 08:37:45;;;;;;;0.10;0.10;;;9.90;99.90;;;;;;5023082;28;20532;-80
2023/02/20 08:40:11;;;;;;;0.10;0.10;;;10.00;99.90;;;;;;5018740;28;20243;-80
2023/02/20 08:42:37;;;;;;;0.10;0.10;;;10.00;99.90;;;;;;5021980;28;20219;-80
2023/02/20 08:45:04;;;;;;;0.10;0.10;;;9.90;99.90;;;;;;5020527;28;20190;-80
2023/02/20 08:47:29;;;;;;;0.10;0.10;;;9.90;99.90;;;;;;5023375;28;20212;-81
2023/02/20 08:49:55;;;;;;;0.10;0.10;;;9.90;99.90;;;;;;5021652;28;20672;-82
2023/02/20 08:52:20;;;;;;;0.10;0.10;;;10.00;99.90;;;;;;5020920;28;20202;-81
2023/02/20 08:54:47;;;;;;;0.10;0.10;;;10.00;99.90;;;;;;5018560;28;20691;-82
2023/02/20 08:57:13;;;;;;;0.10;0.10;;;9.90;99.90;;;;;;5014459;28;20780;-81
2023/02/20 08:59:39;;;;;;;0.10;0.10;;;9.90;99.90;;;;;;5022446;28;20206;-80
2023/02/20 09:02:05;;;;;;;0.10;0.10;;;10.10;99.90;;;;;;5017481;28;20546;-82
2023/02/20 09:04:31;;;;;;;0.10;0.10;;;10.20;99.90;;;;;;5019963;28;21351;-82
2023/02/20 09:06:56;;;;;;;0.10;0.10;;;10.10;99.90;;;;;;5018362;28;20285;-81
2023/02/20 09:09:22;;;;;;;0.10;0.10;;;10.40;99.90;;;;;;5021555;28;20194;-80
2023/02/20 09:11:48;;;;;;;0.10;0.10;;;10.60;99.90;;;;;;5021293;28;21222;-81
2023/02/20 09:14:14;;;;;;;0.10;0.10;;;10.80;99.90;;;;;;5014459;28;20206;-82
2023/02/20 09:16:42;;;;;;;0.10;0.10;;;10.90;99.90;;;;;;5016179;28;20186;-81
2023/02/20 09:19:08;;;;;;;0.10;0.10;;;10.80;99.90;;;;;;5022218;28;20244;-80
2023/02/20 09:21:34;;;;;;;0.10;0.10;;;10.90;99.90;;;;;;5022844;28;20272;-81
2023/02/20 09:24:00;;;;;;;0.10;0.10;;;11.00;99.90;;;;;;5020001;28;20771;-81
2023/02/20 09:26:25;;;;;;;0.00;0.00;;;11.20;99.90;;;;;;5022050;28;20198;-81
2023/02/20 09:28:51;;;;;;;0.10;0.10;;;11.30;99.90;;;;;;5020595;28;20694;-80
2023/02/20 09:31:16;;;;;;;0.10;0.10;;;11.50;99.90;;;;;;5019069;28;20249;-81
2023/02/20 09:33:46;;;;;;;0.10;0.10;;;11.60;99.90;;;;;;5019608;28;20230;-82
2023/02/20 09:36:12;;;;;;;0.10;0.10;;;11.50;99.90;;;;;;5022380;28;20182;-81
2023/02/20 09:38:37;;;;;;;0.10;0.10;;;11.70;99.90;;;;;;5021888;28;20248;-81
2023/02/20 09:41:03;;;;;;;0.10;0.10;;;11.70;99.90;;;;;;5021200;28;21260;-81
2023/02/20 09:43:48;;;;;;;0.10;0.10;;;11.50;99.90;;;;;;5019015;28;20213;-82
2023/02/20 09:46:19;;;;;;;0.10;0.10;;;11.40;99.90;;;;;;5023716;28;20181;-81
2023/02/20 09:48:59;;;;;;;0.10;0.10;;;11.20;99.90;;;;;;5020810;28;20195;-83
2023/02/20 09:51:30;;;;;;;0.10;0.10;;;11.50;99.90;;;;;;5021766;28;20683;-81
2023/02/20 09:54:02;;;;;;;0.10;0.10;;;11.70;99.90;;;;;;5019918;28;20210;-81
2023/02/20 09:56:31;;;;;;;0.10;0.10;;;11.80;99.90;;;;;;5020882;28;20236;-80
2023/02/20 09:59:26;;;;;;;0.10;0.10;;;11.80;99.90;;;;;;5016972;28;20660;-81
2023/02/20 10:01:54;;;;;;;0.10;0.10;;;11.90;99.90;;;;;;5016845;28;20757;-81
2023/02/20 10:04:24;;;;;;;0.10;0.10;;;11.90;99.90;;;;;;5020007;28;20211;-81
2023/02/20 10:06:56;;;;;;;0.10;0.10;;;11.90;99.90;;;;;;5020189;28;20213;-81
2023/02/20 10:09:22;;;;;;;0.10;0.10;;;11.90;99.90;;;;;;5019110;28;20190;-80
2023/02/20 10:12:16;;;;;;;0.10;0.10;;;12.00;99.90;;;;;;5015521;28;20186;-80
2023/02/20 10:15:06;;;;;;;0.10;0.10;;;12.10;99.90;;;;;;5021731;28;20578;-80
2023/02/20 10:17:34;;;;;;;0.10;0.10;;;12.20;99.90;;;;;;5014798;28;20210;-79
2023/02/20 10:20:16;;;;;;;0.10;0.10;;;12.30;99.90;;;;;;5016874;28;20232;-80
2023/02/20 10:22:57;;;;;;;0.10;0.10;;;12.30;99.90;;;;;;5019186;28;20217;-80
2023/02/20 10:25:32;;;;;;;0.10;0.10;;;12.40;99.90;;;;;;5013799;28;20189;-80
2023/02/20 10:28:17;;;;;;;0.10;0.10;;;12.50;99.90;;;;;;5014963;28;20185;-80
2023/02/20 10:31:07;;;;;;;0.10;0.10;;;12.80;99.90;;;;;;5020902;28;20190;-80
2023/02/20 10:33:44;;;;;;;0.10;0.10;;;12.80;99.90;;;;;;5021009;28;20241;-79
2023/02/20 10:36:19;;;;;;;0.10;0.10;;;12.90;99.90;;;;;;5015202;28;20564;-80
2023/02/20 10:39:14;;;;;;;0.10;0.10;;;13.10;99.90;;;;;;5013874;28;20671;-80
2023/02/20 10:41:56;;;;;;;0.10;0.10;;;13.20;99.90;;;;;;5018263;28;20195;-80
2023/02/20 10:44:28;;;;;;;0.10;0.10;;;13.40;99.90;;;;;;5020557;28;20199;-80
2023/02/20 10:47:09;;;;;;;0.10;0.10;;;13.50;99.90;;;;;;5015803;28;20221;-82
2023/02/20 10:49:44;;;;;;;0.10;0.10;;;13.40;99.90;;;;;;5014633;28;20199;-80
2023/02/20 10:52:14;;;;;;;0.10;0.10;;;13.40;99.90;;;;;;5036002;28;20188;-80
2023/02/20 10:54:44;;;;;;;0.10;0.10;;;13.50;99.90;;;;;;5015093;28;20301;-80
2023/02/20 10:57:27;;;;;;;0.10;0.10;;;13.60;99.90;;;;;;5018634;28;20183;-80
2023/02/20 11:00:04;;;;;;;0.10;0.10;;;13.60;99.90;;;;;;5019718;28;20289;-81
2023/02/20 11:02:35;;;;;;;0.10;0.10;;;13.90;99.90;;;;;;5020812;28;20652;-80
2023/02/20 11:05:06;;;;;;;0.10;0.10;;;14.00;99.90;;;;;;5020549;28;20199;-80
2023/02/20 11:07:32;;;;;;;0.10;0.10;;;14.00;99.90;;;;;;5021470;28;20208;-80
2023/02/20 11:09:57;;;;;;;0.10;0.10;;;14.10;99.90;;;;;;5015479;28;20197;-80
2023/02/20 11:12:26;;;;;;;0.10;0.10;;;14.10;99.90;;;;;;5016173;28;20561;-79
2023/02/20 11:14:56;;;;;;;0.10;0.10;;;13.90;99.90;;;;;;5022279;28;20210;-80
2023/02/20 11:17:28;;;;;;;0.00;0.00;;;14.10;99.90;;;;;;5024431;28;20183;-80
2023/02/20 11:19:56;;;;;;;0.10;0.10;;;14.00;99.90;;;;;;5023844;28;20191;-81
2023/02/20 11:22:48;;;;;;;0.10;0.10;;;14.10;99.90;;;;;;5023947;28;20654;-80
2023/02/20 11:25:25;;;;;;;0.10;0.10;;;14.10;99.90;;;;;;5022052;28;20199;-80
2023/02/20 11:27:56;;;;;;;0.10;0.10;;;14.20;99.90;;;;;;5023085;28;20192;-80
2023/02/20 11:30:31;;;;;;;0.10;0.10;;;14.30;99.90;;;;;;5023882;28;20261;-80
2023/02/20 11:33:12;;;;;;;0.10;0.10;;;14.30;99.90;;;;;;5024744;28;20217;-80
2023/02/20 11:35:39;;;;;;;0.20;0.20;;;14.40;99.90;;;;;;5017869;28;20211;-80
2023/02/20 11:38:17;;;;;;;0.10;0.10;;;14.40;99.90;;;;;;5023066;28;20571;-80
2023/02/20 11:41:05;;;;;;;0.10;0.10;;;14.40;99.90;;;;;;5019157;28;20255;-79
2023/02/20 11:43:37;;;;;;;0.10;0.10;;;14.40;99.90;;;;;;5025098;28;20317;-78
2023/02/20 11:46:14;;;;;;;0.10;0.10;;;14.50;99.90;;;;;;5019119;28;20254;-80
2023/02/20 11:49:06;;;;;;;0.10;0.10;;;14.50;99.90;;;;;;5024146;28;20206;-79
2023/02/20 11:51:49;;;;;;;0.10;0.10;;;14.60;99.90;;;;;;5020984;28;20971;-80
2023/02/20 11:54:21;;;;;;;0.10;0.10;;;14.80;99.90;;;;;;5016789;28;20224;-80
2023/02/20 11:56:58;;;;;;;0.10;0.10;;;14.80;99.90;;;;;;5017775;28;20185;-80
2023/02/20 11:59:43;;;;;;;0.10;0.10;;;15.00;99.90;;;;;;5018094;28;20718;-81
2023/02/20 12:02:14;;;;;;;0.10;0.10;;;14.90;99.90;;;;;;5020175;28;20189;-79
2023/02/20 12:04:42;;;;;;;0.10;0.10;;;14.70;99.90;;;;;;5021844;28;20632;-80
2023/02/20 12:07:24;;;;;;;0.10;0.10;;;14.90;99.90;;;;;;5016052;28;20236;-80
2023/02/20 12:09:54;;;;;;;0.10;0.10;;;14.90;99.90;;;;;;5021371;28;20182;-80
2023/02/20 12:12:22;;;;;;;0.10;0.10;;;15.10;99.90;;;;;;5021372;28;20214;-80
2023/02/20 12:14:49;;;;;;;0.10;0.10;;;15.20;99.90;;;;;;5023192;28;20794;-80
2023/02/20 12:17:36;;;;;;;0.10;0.10;;;15.40;99.90;;;;;;5017556;28;20327;-80
2023/02/20 12:20:05;;;;;;;0.10;0.10;;;15.50;99.90;;;;;;5019339;28;20179;-80
2023/02/20 12:22:41;;;;;;;0.10;0.10;;;15.40;99.90;;;;;;5019639;28;20201;-80
2023/02/20 12:25:14;;;;;;;0.10;0.10;;;15.40;99.90;;;;;;5020783;28;20186;-80
2023/02/20 12:27:42;;;;;;;0.20;0.20;;;15.50;99.90;;;;;;5017772;28;20739;-81
2023/02/20 12:30:23;;;;;;;0.10;0.10;;;15.30;99.90;;;;;;5019452;28;20652;-81
2023/02/20 12:33:13;;;;;;;0.10;0.10;;;15.30;99.90;;;;;;5018409;28;20210;-82
2023/02/20 12:36:09;;;;;;;0.10;0.10;;;15.30;99.90;;;;;;5022994;28;20202;-82
2023/02/20 12:39:12;;;;;;;0.10;0.10;;;15.30;99.90;;;;;;5021346;28;20260;-85
2023/02/20 12:42:01;;;;;;;0.10;0.10;;;15.50;99.90;;;;;;5026023;28;20191;-84
2023/02/20 12:44:51;;;;;;;0.10;0.10;;;15.50;99.90;;;;;;5023502;28;20654;-81
2023/02/20 12:47:30;;;;;;;0.10;0.10;;;15.50;99.90;;;;;;5020677;28;20187;-81
2023/02/20 12:50:29;;;;;;;0.10;0.10;;;15.60;99.90;;;;;;5020987;28;20226;-80
2023/02/20 12:53:29;;;;;;;0.10;0.10;;;15.60;99.90;;;;;;5017390;28;20272;-81
2023/02/20 12:56:26;;;;;;;0.10;0.10;;;15.60;99.90;;;;;;5020396;28;20206;-80
2023/02/20 12:59:27;;;;;;;0.10;0.10;;;15.70;99.90;;;;;;5021484;28;20680;-80
2023/02/20 13:01:54;;;;;;;0.10;0.10;;;15.70;99.90;;;;;;5018544;28;20755;-81
2023/02/20 13:04:26;;;;;;;0.10;0.10;;;15.70;99.90;;;;;;5021644;28;20225;-83
2023/02/20 13:07:15;;;;;;;0.10;0.10;;;15.50;99.90;;;;;;5019183;28;20676;-81
2023/02/20 13:09:58;;;;;;;0.10;0.10;;;15.50;99.90;;;;;;5007635;28;20293;-80
2023/02/20 13:12:24;;;;;;;0.10;0.10;;;15.60;99.90;;;;;;5019797;28;20214;-79
2023/02/20 13:15:04;;;;;;;0.10;0.10;;;15.60;99.90;;;;;;5017430;28;20853;-79
2023/02/20 13:17:48;;;;;;;0.10;0.10;;;15.70;99.90;;;;;;5019755;28;20256;-80
2023/02/20 13:20:20;;;;;;;0.10;0.10;;;15.80;99.90;;;;;;5014149;28;20181;-81
2023/02/20 13:23:14;;;;;;;0.10;0.10;;;15.70;99.90;;;;;;5020073;28;20768;-81
2023/02/20 13:25:48;;;;;;;0.10;0.10;;;15.60;99.90;;;;;;5019439;28;20289;-82
2023/02/20 13:28:19;;;;;;;0.10;0.10;;;15.80;99.90;;;;;;5018943;28;20225;-84